Seafrance Rodin — FOBQ — position and weather

sailwx.info

Track history (hours):
 
Tides and Currents Weather Stations Pressure Air Temp Water Temp Dewpoint Dewpoint Depression Visibility Wind Speed Wind Dir Waves Ship Positions

Seafrance Rodin

Operator: SeaFrance

Last reported at 2018-May-26 13:29 UTC. Time now 2018-May-26 13:53 UTC.
Position N 51°07' E 001°20'.

Length 185 m; draft 6 m.

Type: Ship (hazmat cat A). MMSI: 227022800.

Date/timePositionNaut miles runAvg speedWind from/ knotsBaromVisibWave heightAir tempDewpointWater temp
2018-May-26 13:29N 51°07' E 001°20'3 6.2
2018-May-26 13:00N 51°07' E 001°25'1019.8
2018-May-26 12:30N 51°02' E 001°38'917.6
2018-May-26 12:00N 50°58' E 001°51'0 0.5
2018-May-26 11:30N 50°58' E 001°51'0 0.0
2018-May-26 11:00N 50°58' E 001°51'915.9
2018-May-26 10:28N 50°59' E 001°38'1020.8
2018-May-26 10:00N 51°05' E 001°25'3 2.2
2018-May-26 08:30N 51°07' E 001°22'918.8
2018-May-26 08:00N 51°03' E 001°35'918.8
2018-May-26 07:30N 50°58' E 001°48'2 4.1
2018-May-26 07:00N 50°58' E 001°51'0 0.0
2018-May-26 06:28N 50°58' E 001°51'1313.3
2018-May-26 05:30N 51°02' E 001°32'8 4.3
2018-May-26 03:39N 51°07' E 001°23'216.2
2018-May-26 03:31N 51°07' E 001°26'815.0
2018-May-26 03:01N 51°03' E 001°37'815.4
2018-May-26 02:31N 50°58' E 001°46'3 6.3
2018-May-26 02:00N 50°58' E 001°51'0 0.0
2018-May-26 01:30N 50°58' E 001°51'2 4.8
2018-May-26 01:00N 50°58' E 001°47'815.9
2018-May-26 00:29N 51°01' E 001°35'817.8
2018-May-26 00:00N 51°06' E 001°24'3 5.3
2018-May-25 23:26N 51°07' E 001°20'0 0.0
2018-May-25 22:51N 51°07' E 001°20'2 6.2
2018-May-25 22:30N 51°07' E 001°24'816.6
2018-May-25 22:01N 51°03' E 001°35'917.1
2018-May-25 21:31N 50°58' E 001°46'3 6.7
2018-May-25 21:00N 50°58' E 001°51'0 0.0
2018-May-25 20:30N 50°58' E 001°51'5 9.3
2018-May-25 20:00N 50°58' E 001°44'917.7
2018-May-25 19:30N 51°02' E 001°31'8 4.7
2018-May-25 17:46N 51°07' E 001°21'518.0
2018-May-25 17:30N 51°06' E 001°28'918.5
2018-May-25 17:01N 51°01' E 001°40'714.2
2018-May-25 16:30N 50°58' E 001°51'0 0.4
2018-May-25 16:00N 50°58' E 001°51'2 3.2
2018-May-25 15:31N 50°58' E 001°49'714.8
2018-May-25 15:00N 50°59' E 001°37'817.1
2018-May-25 14:30N 51°04' E 001°26'5 3.9
2018-May-25 13:17N 51°07' E 001°20'414.7
2018-May-25 13:01N 51°07' E 001°27'1019.3
2018-May-25 12:31N 51°01' E 001°39'815.8
2018-May-25 12:00N 50°58' E 001°51'0 0.3
2018-May-25 11:30N 50°58' E 001°51'2 3.1
2018-May-25 11:00N 50°58' E 001°49'816.2
2018-May-25 10:30N 50°60' E 001°36'816.3
2018-May-25 10:00N 51°05' E 001°26'4 2.6
2018-May-25 08:36N 51°07' E 001°22'115.4
2018-May-25 08:31N 51°07' E 001°24'918.5
2018-May-25 08:00N 51°02' E 001°37'917.2
2018-May-25 07:30N 50°58' E 001°49'1 2.7
2018-May-25 07:01N 50°58' E 001°51'0 0.0
2018-May-25 06:31N 50°58' E 001°51'3 5.2
2018-May-25 06:01N 50°58' E 001°47'918.0
2018-May-25 05:31N 51°01' E 001°34'1018.5
2018-May-25 04:58N 51°07' E 001°21'0 0.4
2018-May-25 03:39N 51°07' E 001°22'216.0
2018-May-25 03:30N 51°07' E 001°26'715.0
2018-May-25 03:00N 51°03' E 001°36'816.0
2018-May-25 02:31N 50°58' E 001°46'4 7.0
2018-May-25 02:00N 50°58' E 001°51'0 0.0
2018-May-25 01:30N 50°58' E 001°51'4 7.9
2018-May-25 01:00N 50°58' E 001°45'714.7
2018-May-25 00:30N 50°59' E 001°34'815.6
2018-May-25 00:01N 51°05' E 001°25'4 3.0
2018-May-24 22:49N 51°07' E 001°21'516.2
2018-May-24 22:31N 51°06' E 001°28'917.7
2018-May-24 22:01N 51°00' E 001°39'815.2
2018-May-24 21:31N 50°58' E 001°51'0 0.6
2018-May-24 21:01N 50°58' E 001°51'0 0.0
2018-May-24 20:30N 50°58' E 001°51'712.7
2018-May-24 19:58N 50°58' E 001°40'715.5
2018-May-24 19:30N 51°02' E 001°31'8 5.1
2018-May-24 18:00N 51°07' E 001°22'918.5
2018-May-24 17:30N 51°03' E 001°34'1019.0
2018-May-24 17:00N 50°58' E 001°48'2 4.5
2018-May-24 16:30N 50°58' E 001°51'0 0.0
2018-May-24 16:00N 50°58' E 001°51'2 4.4
2018-May-24 15:30N 50°58' E 001°48'816.9
2018-May-24 15:00N 50°60' E 001°35'917.7
2018-May-24 14:30N 51°06' E 001°24'3 4.2
2018-May-24 13:44N 51°07' E 001°20'0 0.0
2018-May-24 13:29N 51°07' E 001°20'1 0.2
2018-May-24 08:41N 51°07' E 001°22'318.8
2018-May-24 08:30N 51°06' E 001°27'1019.5
2018-May-24 08:00N 51°01' E 001°40'8 7.3
2018-May-24 06:55N 50°58' E 001°52'0 0.0
2018-May-24 06:30N 50°58' E 001°52'3 6.2
2018-May-24 06:00N 50°58' E 001°47'816.2
2018-May-24 05:30N 50°60' E 001°34'816.9
2018-May-24 05:00N 51°05' E 001°24'2 1.9
2018-May-24 03:41N 51°07' E 001°22'317.0
2018-May-24 03:31N 51°06' E 001°26'917.2
2018-May-24 03:00N 51°01' E 001°37'816.9
2018-May-24 02:31N 50°58' E 001°50'1 2.2
2018-May-24 02:00N 50°58' E 001°51'0 0.0
2018-May-24 01:30N 50°58' E 001°51'4 7.4
2018-May-24 01:00N 50°58' E 001°45'713.7
2018-May-24 00:30N 50°60' E 001°35'714.9
2018-May-24 00:00N 51°04' E 001°26'5 6.7
2018-May-23 23:18N 51°07' E 001°20'0 0.0
2018-May-23 23:00N 51°07' E 001°20'3 6.9
2018-May-23 22:30N 51°06' E 001°25'816.1
2018-May-23 22:00N 51°02' E 001°36'815.5
2018-May-23 21:30N 50°58' E 001°47'3 5.7
2018-May-23 21:00N 50°58' E 001°51'0 0.0
2018-May-23 20:30N 50°58' E 001°51'5 9.0
2018-May-23 20:00N 50°58' E 001°44'816.2
2018-May-23 19:30N 51°02' E 001°33'9 6.2
2018-May-23 17:59N 51°07' E 001°21'817.9
2018-May-23 17:30N 51°04' E 001°33'1019.2
2018-May-23 17:00N 50°58' E 001°45'4 7.8
2018-May-23 16:31N 50°58' E 001°51'0 0.0
2018-May-23 16:01N 50°58' E 001°51'3 6.1
2018-May-23 15:30N 50°58' E 001°46'1019.0
2018-May-23 15:01N 51°02' E 001°33'8 5.0
2018-May-23 13:20N 51°07' E 001°22'619.0
2018-May-23 13:01N 51°04' E 001°31'1019.4
2018-May-23 12:30N 50°58' E 001°44'5 9.7
2018-May-23 12:01N 50°58' E 001°51'0 0.0
2018-May-23 11:30N 50°58' E 001°51'1 2.4
2018-May-23 11:00N 50°58' E 001°49'714.4
2018-May-23 10:31N 50°60' E 001°38'815.9
2018-May-23 10:00N 51°04' E 001°28'5 3.3
2018-May-23 08:34N 51°07' E 001°22'113.1
2018-May-23 08:30N 51°07' E 001°23'1019.4
2018-May-23 08:01N 51°02' E 001°36'917.7
2018-May-23 07:30N 50°58' E 001°49'1 2.6
2018-May-23 07:00N 50°58' E 001°51'0 0.0
2018-May-23 06:30N 50°58' E 001°51'4 8.0
2018-May-23 06:00N 50°58' E 001°45'917.1
2018-May-23 05:30N 51°00' E 001°32'816.7
2018-May-23 05:00N 51°06' E 001°23'2 2.7
2018-May-23 04:19N 51°07' E 001°20'0 0.4
2018-May-23 03:53N 51°07' E 001°20'4 9.7
2018-May-23 03:31N 51°07' E 001°26'816.8
2018-May-23 03:00N 51°02' E 001°37'815.9
2018-May-23 02:31N 50°58' E 001°48'2 4.1
2018-May-23 02:00N 50°58' E 001°51'0 0.0
2018-May-23 01:30N 50°58' E 001°51'4 7.1
2018-May-23 01:00N 50°58' E 001°46'510.6
2018-May-23 00:31N 50°59' E 001°38'816.3
2018-May-23 00:01N 51°04' E 001°27'5 5.9
2018-May-22 23:05N 51°07' E 001°20'0 0.0
2018-May-22 22:56N 51°07' E 001°20'3 6.4
2018-May-22 22:30N 51°07' E 001°24'817.0
2018-May-22 22:00N 51°02' E 001°36'816.4
2018-May-22 21:30N 50°58' E 001°47'3 5.2
2018-May-22 21:01N 50°58' E 001°51'0 0.1
2018-May-22 20:26N 50°58' E 001°51'4 9.4
2018-May-22 20:00N 50°58' E 001°45'816.0
2018-May-22 19:30N 51°01' E 001°33'816.8
2018-May-22 19:00N 51°06' E 001°23'2 2.8
2018-May-22 18:16N 51°07' E 001°20'1 2.3
2018-May-22 17:47N 51°07' E 001°22'516.7
2018-May-22 17:31N 51°06' E 001°29'917.6
2018-May-22 17:01N 51°01' E 001°40'815.2
2018-May-22 16:30N 50°58' E 001°51'0 0.2
2018-May-22 16:00N 50°58' E 001°51'3 5.3
2018-May-22 15:31N 50°58' E 001°47'917.8
2018-May-22 15:00N 51°01' E 001°33'917.6
2018-May-22 14:30N 51°06' E 001°23'2 2.3
2018-May-22 13:39N 51°07' E 001°20'0 0.3
2018-May-22 13:26N 51°07' E 001°20'613.8
2018-May-22 13:00N 51°05' E 001°29'1019.7
2018-May-22 12:30N 50°59' E 001°42'612.4
2018-May-22 12:00N 50°58' E 001°51'0 0.0
2018-May-22 11:30N 50°58' E 001°51'1 2.9
2018-May-22 11:00N 50°58' E 001°49'815.2
2018-May-22 10:30N 50°59' E 001°37'817.0
2018-May-22 10:00N 51°04' E 001°26'4 2.8
2018-May-22 08:37N 51°07' E 001°22'218.3
2018-May-22 08:31N 51°07' E 001°25'1019.1
2018-May-22 08:01N 51°01' E 001°37'917.2
2018-May-22 07:30N 50°58' E 001°50'1 1.1
2018-May-22 07:01N 50°58' E 001°51'0 0.0
2018-May-22 06:30N 50°58' E 001°51'3 5.6
2018-May-22 06:00N 50°58' E 001°47'816.2
2018-May-22 05:30N 51°00' E 001°35'816.4
2018-May-22 05:00N 51°06' E 001°25'3 3.2
2018-May-22 03:57N 51°07' E 001°20'3 7.2
2018-May-22 03:31N 51°07' E 001°25'815.5
2018-May-22 03:00N 51°03' E 001°35'815.8
2018-May-22 02:31N 50°58' E 001°46'4 7.0
2018-May-22 02:00N 50°58' E 001°51'0 0.0
2018-May-22 01:30N 50°58' E 001°51'2 3.1
2018-May-22 01:00N 50°58' E 001°49'916.7
2018-May-22 00:29N 51°00' E 001°35'917.9
2018-May-22 00:00N 51°06' E 001°25'3 3.3
2018-May-21 23:00N 51°07' E 001°20'2 3.7
2018-May-21 22:30N 51°07' E 001°23'816.7
2018-May-21 22:00N 51°03' E 001°34'917.0
2018-May-21 21:30N 50°58' E 001°46'3 7.0
2018-May-21 21:00N 50°58' E 001°51'0 0.0
2018-May-21 20:30N 50°58' E 001°51'3 5.9
2018-May-21 20:00N 50°58' E 001°47'816.7
2018-May-21 19:30N 51°01' E 001°34'917.7
2018-May-21 19:00N 51°06' E 001°23'2 3.8
2018-May-21 18:27N 51°07' E 001°20'0 0.0
2018-May-21 18:00N 51°07' E 001°20'510.1
2018-May-21 17:30N 51°06' E 001°28'917.9
2018-May-21 17:00N 51°01' E 001°39'815.6
2018-May-21 16:31N 50°58' E 001°51'0 0.3
2018-May-21 16:00N 50°58' E 001°51'1 2.6
2018-May-21 15:30N 50°58' E 001°49'917.3
2018-May-21 15:00N 50°59' E 001°35'917.9
2018-May-21 14:30N 51°05' E 001°25'4 7.6
2018-May-21 13:59N 51°07' E 001°20'0 0.2
2018-May-21 13:21N 51°07' E 001°20'413.3
2018-May-21 13:00N 51°06' E 001°27'918.2
2018-May-21 12:30N 51°01' E 001°39'816.4
2018-May-21 12:00N 50°58' E 001°51'0 0.4
2018-May-21 11:30N 50°58' E 001°51'1 1.3
2018-May-21 11:01N 50°58' E 001°50'714.7
2018-May-21 10:31N 50°59' E 001°39'816.1
2018-May-21 10:00N 51°03' E 001°28'7 6.0
2018-May-21 08:54N 51°07' E 001°20'410.0
2018-May-21 08:30N 51°06' E 001°26'918.4
2018-May-21 08:00N 51°01' E 001°38'816.4
2018-May-21 07:30N 50°58' E 001°50'1 1.1
2018-May-21 07:00N 50°58' E 001°51'0 0.0
2018-May-21 06:31N 50°58' E 001°51'2 4.0
2018-May-21 06:00N 50°58' E 001°48'816.0
2018-May-21 05:29N 51°01' E 001°35'817.4
2018-May-21 05:01N 51°06' E 001°25'4 4.8
2018-May-21 04:16N 51°07' E 001°20'0 0.3
2018-May-21 03:48N 51°07' E 001°20'310.4
2018-May-21 03:31N 51°07' E 001°25'816.4
2018-May-21 03:01N 51°03' E 001°36'816.1
2018-May-21 02:30N 50°58' E 001°47'3 5.6
2018-May-21 02:00N 50°58' E 001°51'0 0.0
2018-May-21 01:30N 50°58' E 001°51'1 2.1
2018-May-21 01:01N 50°58' E 001°50'815.8
2018-May-21 00:30N 50°59' E 001°37'816.7
2018-May-21 00:00N 51°04' E 001°26'5 7.3
2018-May-20 23:19N 51°07' E 001°20'0 0.0
2018-May-20 22:56N 51°07' E 001°20'2 5.2
2018-May-20 22:31N 51°07' E 001°24'816.1
2018-May-20 22:01N 51°03' E 001°35'917.3
2018-May-20 21:31N 50°58' E 001°46'3 6.4
2018-May-20 21:00N 50°58' E 001°51'0 0.0
2018-May-20 20:30N 50°58' E 001°51'4 8.8
2018-May-20 20:00N 50°58' E 001°44'816.0
2018-May-20 19:30N 51°02' E 001°33'916.9
2018-May-20 19:00N 51°07' E 001°22'1 1.9
2018-May-20 18:14N 51°07' E 001°20'0 0.6
2018-May-20 17:53N 51°07' E 001°20'616.3
2018-May-20 17:31N 51°05' E 001°30'918.0
2018-May-20 17:00N 50°60' E 001°41'612.9
2018-May-20 16:30N 50°58' E 001°51'0 0.0
2018-May-20 15:59N 50°58' E 001°51'1 1.9
2018-May-20 15:30N 50°58' E 001°50'815.9
2018-May-20 15:00N 50°59' E 001°37'817.0
2018-May-20 14:30N 51°04' E 001°27'5 7.3
2018-May-20 13:46N 51°07' E 001°20'1 1.9
2018-May-20 13:11N 51°07' E 001°22'317.2
2018-May-20 13:00N 51°06' E 001°27'917.4
2018-May-20 12:30N 51°01' E 001°38'816.4
2018-May-20 12:00N 50°58' E 001°50'1 1.2
2018-May-20 11:30N 50°58' E 001°51'0 0.0
2018-May-20 11:00N 50°58' E 001°51'0 0.0
2018-May-20 10:30N 50°58' E 001°51'0 0.2
2018-May-20 10:00N 50°58' E 001°51'0 0.8
2018-May-20 09:30N 50°58' E 001°52'0 0.0
2018-May-20 09:00N 50°58' E 001°52'0 0.0
2018-May-20 08:30N 50°58' E 001°52'0 0.0
2018-May-20 08:00N 50°58' E 001°52'0 0.0
2018-May-20 07:30N 50°58' E 001°52'0 0.0
2018-May-20 07:01N 50°58' E 001°52'0 0.0
2018-May-20 06:30N 50°58' E 001°52'0 0.0
2018-May-20 06:00N 50°58' E 001°52'0 0.0
2018-May-20 05:30N 50°58' E 001°52'0 0.0
2018-May-20 05:00N 50°58' E 001°52'0 0.0
2018-May-20 04:30N 50°58' E 001°52'0 0.0
2018-May-20 04:00N 50°58' E 001°52'0 0.0
2018-May-20 03:30N 50°58' E 001°52'0 0.0
2018-May-20 03:00N 50°58' E 001°52'0 0.0
2018-May-20 02:30N 50°58' E 001°52'0 0.0
2018-May-20 02:00N 50°58' E 001°52'0 0.9
2018-May-20 01:30N 50°58' E 001°51'2 3.9
2018-May-20 01:00N 50°58' E 001°48'916.6
2018-May-20 00:29N 51°00' E 001°35'817.0
2018-May-20 00:00N 51°05' E 001°24'3 3.6
2018-May-19 23:03N 51°07' E 001°20'0 0.0
2018-May-19 23:00N 51°07' E 001°20'713.4
2018-May-19 22:30N 51°04' E 001°29'1020.1
2018-May-19 22:00N 50°59' E 001°43'510.4
2018-May-19 21:30N 50°58' E 001°51'0 0.0
2018-May-19 21:00N 50°58' E 001°51'0 0.2
2018-May-19 20:30N 50°58' E 001°51'4 8.5
2018-May-19 20:00N 50°58' E 001°44'715.0
2018-May-19 19:30N 51°02' E 001°34'816.8
2018-May-19 19:01N 51°06' E 001°23'1 0.9
2018-May-19 17:53N 51°07' E 001°22'615.7
2018-May-19 17:31N 51°05' E 001°31'917.9
2018-May-19 17:00N 50°60' E 001°42'612.0
2018-May-19 16:31N 50°58' E 001°51'0 0.0
2018-May-19 16:00N 50°58' E 001°51'2 3.9
2018-May-19 15:30N 50°58' E 001°48'816.2
2018-May-19 15:00N 51°01' E 001°36'917.5
2018-May-19 14:30N 51°06' E 001°25'2 1.9
2018-May-19 13:24N 51°07' E 001°22'820.9
2018-May-19 13:00N 51°03' E 001°34'1020.2
2018-May-19 12:30N 50°58' E 001°48'2 4.4
2018-May-19 12:00N 50°58' E 001°51'0 0.0
2018-May-19 11:30N 50°58' E 001°51'2 5.0
2018-May-19 11:00N 50°58' E 001°47'816.7
2018-May-19 10:30N 51°01' E 001°35'1120.1
2018-May-19 09:58N 51°07' E 001°20'1 1.1
2018-May-19 09:11N 51°07' E 001°20'0 0.0
2018-May-19 08:56N 51°07' E 001°20'4 8.8
2018-May-19 08:30N 51°06' E 001°26'1019.0
2018-May-19 08:00N 51°01' E 001°38'816.4
2018-May-19 07:30N 50°58' E 001°51'0 0.7
2018-May-19 07:00N 50°58' E 001°51'0 0.0
2018-May-19 06:30N 50°58' E 001°51'3 5.8
2018-May-19 06:00N 50°58' E 001°47'815.3
2018-May-19 05:30N 51°01' E 001°35'917.2
2018-May-19 05:01N 51°06' E 001°24'3 3.0
2018-May-19 03:56N 51°07' E 001°20'3 7.9
2018-May-19 03:31N 51°07' E 001°25'815.7
2018-May-19 03:01N 51°03' E 001°36'815.7
2018-May-19 02:31N 50°58' E 001°46'3 6.6
2018-May-19 02:00N 50°58' E 001°51'0 0.0
2018-May-19 01:30N 50°58' E 001°51'2 3.0
2018-May-19 01:00N 50°58' E 001°49'816.3
2018-May-19 00:30N 50°60' E 001°36'816.5
2018-May-19 00:00N 51°05' E 001°26'4 2.6
2018-May-18 22:37N 51°07' E 001°22'216.9
2018-May-18 22:30N 51°07' E 001°25'917.2
2018-May-18 22:01N 51°02' E 001°36'917.0
2018-May-18 21:30N 50°58' E 001°48'2 3.9
2018-May-18 21:00N 50°58' E 001°51'0 0.0
2018-May-18 20:31N 50°58' E 001°51'510.7
2018-May-18 20:00N 50°58' E 001°43'815.6
2018-May-18 19:30N 51°02' E 001°32'8 4.7
2018-May-18 17:44N 51°07' E 001°22'418.1
2018-May-18 17:31N 51°06' E 001°28'918.1
2018-May-18 17:01N 51°00' E 001°40'815.3
2018-May-18 16:31N 50°58' E 001°51'0 0.1
2018-May-18 16:00N 50°58' E 001°51'0 0.0
2018-May-18 15:30N 50°58' E 001°51'714.5
2018-May-18 15:01N 50°59' E 001°40'918.5
2018-May-18 14:30N 51°04' E 001°28'6 4.6
2018-May-18 13:17N 51°07' E 001°20'413.4
2018-May-18 13:01N 51°06' E 001°26'918.1
2018-May-18 12:30N 51°01' E 001°38'816.6
2018-May-18 12:01N 50°58' E 001°50'1 1.4
2018-May-18 11:31N 50°58' E 001°51'1 2.1
2018-May-18 11:00N 50°58' E 001°50'713.5
2018-May-18 10:30N 50°60' E 001°39'917.5
2018-May-18 10:00N 51°04' E 001°27'5 3.3
2018-May-18 08:38N 51°07' E 001°22'218.1
2018-May-18 08:30N 51°06' E 001°25'918.1
2018-May-18 08:00N 51°01' E 001°37'917.7
2018-May-18 07:30N 50°58' E 001°50'1 1.6
2018-May-18 07:00N 50°58' E 001°51'0 0.0
2018-May-18 06:30N 50°58' E 001°51'3 6.3
2018-May-18 06:00N 50°58' E 001°46'714.7
2018-May-18 05:30N 50°60' E 001°35'816.8
2018-May-18 05:00N 51°05' E 001°25'2 1.7
2018-May-18 03:35N 51°07' E 001°22'116.5
2018-May-18 03:31N 51°07' E 001°24'917.6
2018-May-18 03:01N 51°03' E 001°36'816.7
2018-May-18 02:30N 50°58' E 001°47'2 4.8
2018-May-18 02:00N 50°58' E 001°51'0 0.0
2018-May-18 01:30N 50°58' E 001°51'0 0.0
2018-May-18 01:00N 50°58' E 001°51'0 0.8
2018-May-18 00:30N 50°58' E 001°52'0 0.0
2018-May-17 23:58N 50°58' E 001°52'0 0.9
2018-May-17 23:30N 50°58' E 001°51'3 5.0
2018-May-17 23:00N 50°58' E 001°47'814.9
2018-May-17 22:27N 51°00' E 001°35'715.5
2018-May-17 22:01N 51°05' E 001°26'5 8.4
2018-May-17 21:27N 51°07' E 001°20'0 0.0
2018-May-17 21:00N 51°07' E 001°20'2 3.7
2018-May-17 20:30N 51°07' E 001°23'1121.7
2018-May-17 20:01N 51°01' E 001°37'917.9
2018-May-17 19:30N 50°58' E 001°51'0 0.5
2018-May-17 19:00N 50°58' E 001°51'0 0.0
2018-May-17 18:30N 50°58' E 001°51'4 8.7
2018-May-17 18:00N 50°58' E 001°44'917.2
2018-May-17 17:29N 51°01' E 001°31'9 2.2
2018-May-17 13:15N 51°07' E 001°20'313.4
2018-May-17 13:01N 51°07' E 001°25'1019.2
2018-May-17 12:30N 51°01' E 001°38'917.0
2018-May-17 12:01N 50°58' E 001°51'0 0.9
2018-May-17 11:30N 50°58' E 001°51'0 0.1
2018-May-17 11:00N 50°58' E 001°51'816.3
2018-May-17 10:29N 50°59' E 001°38'1021.3
2018-May-17 10:00N 51°05' E 001°25'4 4.3
2018-May-17 09:06N 51°07' E 001°20'1 3.1
2018-May-17 08:45N 51°07' E 001°22'520.1
2018-May-17 08:30N 51°05' E 001°28'1019.2
2018-May-17 08:01N 50°59' E 001°40'713.7
2018-May-17 07:31N 50°58' E 001°51'0 0.0
2018-May-17 07:00N 50°58' E 001°51'0 0.1
2018-May-17 06:30N 50°58' E 001°51'713.0
2018-May-17 06:00N 50°58' E 001°41'815.9
2018-May-17 05:30N 51°01' E 001°30'8 6.2
2018-May-17 04:09N 51°07' E 001°20'1 6.8
2018-May-17 04:00N 51°07' E 001°22'1019.2
2018-May-17 03:31N 51°03' E 001°35'917.8
2018-May-17 03:01N 50°58' E 001°48'3 4.4
2018-May-17 02:24N 50°58' E 001°52'0 0.0
2018-May-17 01:57N 50°58' E 001°52'4 8.8
2018-May-17 01:30N 50°58' E 001°45'611.0
2018-May-17 01:00N 50°59' E 001°37'816.6
2018-May-17 00:31N 51°04' E 001°26'5 6.1
2018-May-16 23:40N 51°07' E 001°20'0 0.6
2018-May-16 23:27N 51°07' E 001°20'612.7
2018-May-16 23:01N 51°05' E 001°29'1019.3
2018-May-16 22:30N 51°00' E 001°42'713.0
2018-May-16 22:00N 50°58' E 001°52'0 0.2
2018-May-16 21:27N 50°58' E 001°52'2 4.6
2018-May-16 21:00N 50°58' E 001°48'5 9.0
2018-May-16 20:30N 50°59' E 001°41'918.6
2018-May-16 20:00N 51°03' E 001°28'7 5.7
2018-May-16 18:50N 51°07' E 001°20'1 4.4
2018-May-16 18:30N 51°07' E 001°22'816.6
2018-May-16 18:00N 51°04' E 001°34'917.5
2018-May-16 17:31N 50°58' E 001°45'4 7.7
2018-May-16 17:00N 50°58' E 001°51'0 0.0
2018-May-16 16:30N 50°58' E 001°51'1 2.8
2018-May-16 16:00N 50°58' E 001°49'611.7
2018-May-16 15:30N 50°58' E 001°40'816.9
2018-May-16 15:01N 51°03' E 001°29'7 4.8
2018-May-16 13:33N 51°07' E 001°20'  
Track history (hours):
 
Tides and Currents Weather Stations Pressure Air Temp Water Temp Dewpoint Dewpoint Depression Visibility Wind Speed Wind Dir Waves Ship Positions

Seafrance Rodin

Operator: SeaFrance

Last reported at 2018-May-26 13:29 UTC. Time now 2018-May-26 13:53 UTC.
Position N 51°07' E 001°20'.

Length 185 m; draft 6 m.

Type: Ship (hazmat cat A). MMSI: 227022800.

Date/timePositionNaut miles runAvg speedWind from/ knotsBaromVisibWave heightAir tempDewpointWater temp
2018-May-26 13:29N 51°07' E 001°20'3 6.2
2018-May-26 13:00N 51°07' E 001°25'1019.8
2018-May-26 12:30N 51°02' E 001°38'917.6
2018-May-26 12:00N 50°58' E 001°51'0 0.5
2018-May-26 11:30N 50°58' E 001°51'0 0.0
2018-May-26 11:00N 50°58' E 001°51'915.9
2018-May-26 10:28N 50°59' E 001°38'1020.8
2018-May-26 10:00N 51°05' E 001°25'3 2.2
2018-May-26 08:30N 51°07' E 001°22'918.8
2018-May-26 08:00N 51°03' E 001°35'918.8
2018-May-26 07:30N 50°58' E 001°48'2 4.1
2018-May-26 07:00N 50°58' E 001°51'0 0.0
2018-May-26 06:28N 50°58' E 001°51'1313.3
2018-May-26 05:30N 51°02' E 001°32'8 4.3
2018-May-26 03:39N 51°07' E 001°23'216.2
2018-May-26 03:31N 51°07' E 001°26'815.0
2018-May-26 03:01N 51°03' E 001°37'815.4
2018-May-26 02:31N 50°58' E 001°46'3 6.3
2018-May-26 02:00N 50°58' E 001°51'0 0.0
2018-May-26 01:30N 50°58' E 001°51'2 4.8
2018-May-26 01:00N 50°58' E 001°47'815.9
2018-May-26 00:29N 51°01' E 001°35'817.8
2018-May-26 00:00N 51°06' E 001°24'3 5.3
2018-May-25 23:26N 51°07' E 001°20'0 0.0
2018-May-25 22:51N 51°07' E 001°20'2 6.2
2018-May-25 22:30N 51°07' E 001°24'816.6
2018-May-25 22:01N 51°03' E 001°35'917.1
2018-May-25 21:31N 50°58' E 001°46'3 6.7
2018-May-25 21:00N 50°58' E 001°51'0 0.0
2018-May-25 20:30N 50°58' E 001°51'5 9.3
2018-May-25 20:00N 50°58' E 001°44'917.7
2018-May-25 19:30N 51°02' E 001°31'8 4.7
2018-May-25 17:46N 51°07' E 001°21'518.0
2018-May-25 17:30N 51°06' E 001°28'918.5
2018-May-25 17:01N 51°01' E 001°40'714.2
2018-May-25 16:30N 50°58' E 001°51'0 0.4
2018-May-25 16:00N 50°58' E 001°51'2 3.2
2018-May-25 15:31N 50°58' E 001°49'714.8
2018-May-25 15:00N 50°59' E 001°37'817.1
2018-May-25 14:30N 51°04' E 001°26'5 3.9
2018-May-25 13:17N 51°07' E 001°20'414.7
2018-May-25 13:01N 51°07' E 001°27'1019.3
2018-May-25 12:31N 51°01' E 001°39'815.8
2018-May-25 12:00N 50°58' E 001°51'0 0.3
2018-May-25 11:30N 50°58' E 001°51'2 3.1
2018-May-25 11:00N 50°58' E 001°49'816.2
2018-May-25 10:30N 50°60' E 001°36'816.3
2018-May-25 10:00N 51°05' E 001°26'4 2.6
2018-May-25 08:36N 51°07' E 001°22'115.4
2018-May-25 08:31N 51°07' E 001°24'918.5
2018-May-25 08:00N 51°02' E 001°37'917.2
2018-May-25 07:30N 50°58' E 001°49'1 2.7
2018-May-25 07:01N 50°58' E 001°51'0 0.0
2018-May-25 06:31N 50°58' E 001°51'3 5.2
2018-May-25 06:01N 50°58' E 001°47'918.0
2018-May-25 05:31N 51°01' E 001°34'1018.5
2018-May-25 04:58N 51°07' E 001°21'0 0.4
2018-May-25 03:39N 51°07' E 001°22'216.0
2018-May-25 03:30N 51°07' E 001°26'715.0
2018-May-25 03:00N 51°03' E 001°36'816.0
2018-May-25 02:31N 50°58' E 001°46'4 7.0
2018-May-25 02:00N 50°58' E 001°51'0 0.0
2018-May-25 01:30N 50°58' E 001°51'4 7.9
2018-May-25 01:00N 50°58' E 001°45'714.7
2018-May-25 00:30N 50°59' E 001°34'815.6
2018-May-25 00:01N 51°05' E 001°25'4 3.0
2018-May-24 22:49N 51°07' E 001°21'516.2
2018-May-24 22:31N 51°06' E 001°28'917.7
2018-May-24 22:01N 51°00' E 001°39'815.2
2018-May-24 21:31N 50°58' E 001°51'0 0.6
2018-May-24 21:01N 50°58' E 001°51'0 0.0
2018-May-24 20:30N 50°58' E 001°51'712.7
2018-May-24 19:58N 50°58' E 001°40'715.5
2018-May-24 19:30N 51°02' E 001°31'8 5.1
2018-May-24 18:00N 51°07' E 001°22'918.5
2018-May-24 17:30N 51°03' E 001°34'1019.0
2018-May-24 17:00N 50°58' E 001°48'2 4.5
2018-May-24 16:30N 50°58' E 001°51'0 0.0
2018-May-24 16:00N 50°58' E 001°51'2 4.4
2018-May-24 15:30N 50°58' E 001°48'816.9
2018-May-24 15:00N 50°60' E 001°35'917.7
2018-May-24 14:30N 51°06' E 001°24'3 4.2
2018-May-24 13:44N 51°07' E 001°20'0 0.0
2018-May-24 13:29N 51°07' E 001°20'1 0.2
2018-May-24 08:41N 51°07' E 001°22'318.8
2018-May-24 08:30N 51°06' E 001°27'1019.5
2018-May-24 08:00N 51°01' E 001°40'8 7.3
2018-May-24 06:55N 50°58' E 001°52'0 0.0
2018-May-24 06:30N 50°58' E 001°52'3 6.2
2018-May-24 06:00N 50°58' E 001°47'816.2
2018-May-24 05:30N 50°60' E 001°34'816.9
2018-May-24 05:00N 51°05' E 001°24'2 1.9
2018-May-24 03:41N 51°07' E 001°22'317.0
2018-May-24 03:31N 51°06' E 001°26'917.2
2018-May-24 03:00N 51°01' E 001°37'816.9
2018-May-24 02:31N 50°58' E 001°50'1 2.2
2018-May-24 02:00N 50°58' E 001°51'0 0.0
2018-May-24 01:30N 50°58' E 001°51'4 7.4
2018-May-24 01:00N 50°58' E 001°45'713.7
2018-May-24 00:30N 50°60' E 001°35'714.9
2018-May-24 00:00N 51°04' E 001°26'5 6.7
2018-May-23 23:18N 51°07' E 001°20'0 0.0
2018-May-23 23:00N 51°07' E 001°20'3 6.9
2018-May-23 22:30N 51°06' E 001°25'816.1
2018-May-23 22:00N 51°02' E 001°36'815.5
2018-May-23 21:30N 50°58' E 001°47'3 5.7
2018-May-23 21:00N 50°58' E 001°51'0 0.0
2018-May-23 20:30N 50°58' E 001°51'5 9.0
2018-May-23 20:00N 50°58' E 001°44'816.2
2018-May-23 19:30N 51°02' E 001°33'9 6.2
2018-May-23 17:59N 51°07' E 001°21'817.9
2018-May-23 17:30N 51°04' E 001°33'1019.2
2018-May-23 17:00N 50°58' E 001°45'4 7.8
2018-May-23 16:31N 50°58' E 001°51'0 0.0
2018-May-23 16:01N 50°58' E 001°51'3 6.1
2018-May-23 15:30N 50°58' E 001°46'1019.0
2018-May-23 15:01N 51°02' E 001°33'8 5.0
2018-May-23 13:20N 51°07' E 001°22'619.0
2018-May-23 13:01N 51°04' E 001°31'1019.4
2018-May-23 12:30N 50°58' E 001°44'5 9.7
2018-May-23 12:01N 50°58' E 001°51'0 0.0
2018-May-23 11:30N 50°58' E 001°51'1 2.4
2018-May-23 11:00N 50°58' E 001°49'714.4
2018-May-23 10:31N 50°60' E 001°38'815.9
2018-May-23 10:00N 51°04' E 001°28'5 3.3
2018-May-23 08:34N 51°07' E 001°22'113.1
2018-May-23 08:30N 51°07' E 001°23'1019.4
2018-May-23 08:01N 51°02' E 001°36'917.7
2018-May-23 07:30N 50°58' E 001°49'1 2.6
2018-May-23 07:00N 50°58' E 001°51'0 0.0
2018-May-23 06:30N 50°58' E 001°51'4 8.0
2018-May-23 06:00N 50°58' E 001°45'917.1
2018-May-23 05:30N 51°00' E 001°32'816.7
2018-May-23 05:00N 51°06' E 001°23'2 2.7
2018-May-23 04:19N 51°07' E 001°20'0 0.4
2018-May-23 03:53N 51°07' E 001°20'4 9.7
2018-May-23 03:31N 51°07' E 001°26'816.8
2018-May-23 03:00N 51°02' E 001°37'815.9
2018-May-23 02:31N 50°58' E 001°48'2 4.1
2018-May-23 02:00N 50°58' E 001°51'0 0.0
2018-May-23 01:30N 50°58' E 001°51'4 7.1
2018-May-23 01:00N 50°58' E 001°46'510.6
2018-May-23 00:31N 50°59' E 001°38'816.3
2018-May-23 00:01N 51°04' E 001°27'5 5.9
2018-May-22 23:05N 51°07' E 001°20'0 0.0
2018-May-22 22:56N 51°07' E 001°20'3 6.4
2018-May-22 22:30N 51°07' E 001°24'817.0
2018-May-22 22:00N 51°02' E 001°36'816.4
2018-May-22 21:30N 50°58' E 001°47'3 5.2
2018-May-22 21:01N 50°58' E 001°51'0 0.1
2018-May-22 20:26N 50°58' E 001°51'4 9.4
2018-May-22 20:00N 50°58' E 001°45'816.0
2018-May-22 19:30N 51°01' E 001°33'816.8
2018-May-22 19:00N 51°06' E 001°23'2 2.8
2018-May-22 18:16N 51°07' E 001°20'1 2.3
2018-May-22 17:47N 51°07' E 001°22'516.7
2018-May-22 17:31N 51°06' E 001°29'917.6
2018-May-22 17:01N 51°01' E 001°40'815.2
2018-May-22 16:30N 50°58' E 001°51'0 0.2
2018-May-22 16:00N 50°58' E 001°51'3 5.3
2018-May-22 15:31N 50°58' E 001°47'917.8
2018-May-22 15:00N 51°01' E 001°33'917.6
2018-May-22 14:30N 51°06' E 001°23'2 2.3
2018-May-22 13:39N 51°07' E 001°20'0 0.3
2018-May-22 13:26N 51°07' E 001°20'613.8
2018-May-22 13:00N 51°05' E 001°29'1019.7
2018-May-22 12:30N 50°59' E 001°42'612.4
2018-May-22 12:00N 50°58' E 001°51'0 0.0
2018-May-22 11:30N 50°58' E 001°51'1 2.9
2018-May-22 11:00N 50°58' E 001°49'815.2
2018-May-22 10:30N 50°59' E 001°37'817.0
2018-May-22 10:00N 51°04' E 001°26'4 2.8
2018-May-22 08:37N 51°07' E 001°22'218.3
2018-May-22 08:31N 51°07' E 001°25'1019.1
2018-May-22 08:01N 51°01' E 001°37'917.2
2018-May-22 07:30N 50°58' E 001°50'1 1.1
2018-May-22 07:01N 50°58' E 001°51'0 0.0
2018-May-22 06:30N 50°58' E 001°51'3 5.6
2018-May-22 06:00N 50°58' E 001°47'816.2
2018-May-22 05:30N 51°00' E 001°35'816.4
2018-May-22 05:00N 51°06' E 001°25'3 3.2
2018-May-22 03:57N 51°07' E 001°20'3 7.2
2018-May-22 03:31N 51°07' E 001°25'815.5
2018-May-22 03:00N 51°03' E 001°35'815.8
2018-May-22 02:31N 50°58' E 001°46'4 7.0
2018-May-22 02:00N 50°58' E 001°51'0 0.0
2018-May-22 01:30N 50°58' E 001°51'2 3.1
2018-May-22 01:00N 50°58' E 001°49'916.7
2018-May-22 00:29N 51°00' E 001°35'917.9
2018-May-22 00:00N 51°06' E 001°25'3 3.3
2018-May-21 23:00N 51°07' E 001°20'2 3.7
2018-May-21 22:30N 51°07' E 001°23'816.7
2018-May-21 22:00N 51°03' E 001°34'917.0
2018-May-21 21:30N 50°58' E 001°46'3 7.0
2018-May-21 21:00N 50°58' E 001°51'0 0.0
2018-May-21 20:30N 50°58' E 001°51'3 5.9
2018-May-21 20:00N 50°58' E 001°47'816.7
2018-May-21 19:30N 51°01' E 001°34'917.7
2018-May-21 19:00N 51°06' E 001°23'2 3.8
2018-May-21 18:27N 51°07' E 001°20'0 0.0
2018-May-21 18:00N 51°07' E 001°20'510.1
2018-May-21 17:30N 51°06' E 001°28'917.9
2018-May-21 17:00N 51°01' E 001°39'815.6
2018-May-21 16:31N 50°58' E 001°51'0 0.3
2018-May-21 16:00N 50°58' E 001°51'1 2.6
2018-May-21 15:30N 50°58' E 001°49'917.3
2018-May-21 15:00N 50°59' E 001°35'917.9
2018-May-21 14:30N 51°05' E 001°25'4 7.6
2018-May-21 13:59N 51°07' E 001°20'0 0.2
2018-May-21 13:21N 51°07' E 001°20'413.3
2018-May-21 13:00N 51°06' E 001°27'918.2
2018-May-21 12:30N 51°01' E 001°39'816.4
2018-May-21 12:00N 50°58' E 001°51'0 0.4
2018-May-21 11:30N 50°58' E 001°51'1 1.3
2018-May-21 11:01N 50°58' E 001°50'714.7
2018-May-21 10:31N 50°59' E 001°39'816.1
2018-May-21 10:00N 51°03' E 001°28'7 6.0
2018-May-21 08:54N 51°07' E 001°20'410.0
2018-May-21 08:30N 51°06' E 001°26'918.4
2018-May-21 08:00N 51°01' E 001°38'816.4
2018-May-21 07:30N 50°58' E 001°50'1 1.1
2018-May-21 07:00N 50°58' E 001°51'0 0.0
2018-May-21 06:31N 50°58' E 001°51'2 4.0
2018-May-21 06:00N 50°58' E 001°48'816.0
2018-May-21 05:29N 51°01' E 001°35'817.4
2018-May-21 05:01N 51°06' E 001°25'4 4.8
2018-May-21 04:16N 51°07' E 001°20'0 0.3
2018-May-21 03:48N 51°07' E 001°20'310.4
2018-May-21 03:31N 51°07' E 001°25'816.4
2018-May-21 03:01N 51°03' E 001°36'816.1
2018-May-21 02:30N 50°58' E 001°47'3 5.6
2018-May-21 02:00N 50°58' E 001°51'0 0.0
2018-May-21 01:30N 50°58' E 001°51'1 2.1
2018-May-21 01:01N 50°58' E 001°50'815.8
2018-May-21 00:30N 50°59' E 001°37'816.7
2018-May-21 00:00N 51°04' E 001°26'5 7.3
2018-May-20 23:19N 51°07' E 001°20'0 0.0
2018-May-20 22:56N 51°07' E 001°20'2 5.2
2018-May-20 22:31N 51°07' E 001°24'816.1
2018-May-20 22:01N 51°03' E 001°35'917.3
2018-May-20 21:31N 50°58' E 001°46'3 6.4
2018-May-20 21:00N 50°58' E 001°51'0 0.0
2018-May-20 20:30N 50°58' E 001°51'4 8.8
2018-May-20 20:00N 50°58' E 001°44'816.0
2018-May-20 19:30N 51°02' E 001°33'916.9
2018-May-20 19:00N 51°07' E 001°22'1 1.9
2018-May-20 18:14N 51°07' E 001°20'0 0.6
2018-May-20 17:53N 51°07' E 001°20'616.3
2018-May-20 17:31N 51°05' E 001°30'918.0
2018-May-20 17:00N 50°60' E 001°41'612.9
2018-May-20 16:30N 50°58' E 001°51'0 0.0
2018-May-20 15:59N 50°58' E 001°51'1 1.9
2018-May-20 15:30N 50°58' E 001°50'815.9
2018-May-20 15:00N 50°59' E 001°37'817.0
2018-May-20 14:30N 51°04' E 001°27'5 7.3
2018-May-20 13:46N 51°07' E 001°20'1 1.9
2018-May-20 13:11N 51°07' E 001°22'317.2
2018-May-20 13:00N 51°06' E 001°27'917.4
2018-May-20 12:30N 51°01' E 001°38'816.4
2018-May-20 12:00N 50°58' E 001°50'1 1.2
2018-May-20 11:30N 50°58' E 001°51'0 0.0
2018-May-20 11:00N 50°58' E 001°51'0 0.0
2018-May-20 10:30N 50°58' E 001°51'0 0.2
2018-May-20 10:00N 50°58' E 001°51'0 0.8
2018-May-20 09:30N 50°58' E 001°52'0 0.0
2018-May-20 09:00N 50°58' E 001°52'0 0.0
2018-May-20 08:30N 50°58' E 001°52'0 0.0
2018-May-20 08:00N 50°58' E 001°52'0 0.0
2018-May-20 07:30N 50°58' E 001°52'0 0.0
2018-May-20 07:01N 50°58' E 001°52'0 0.0
2018-May-20 06:30N 50°58' E 001°52'0 0.0
2018-May-20 06:00N 50°58' E 001°52'0 0.0
2018-May-20 05:30N 50°58' E 001°52'0 0.0
2018-May-20 05:00N 50°58' E 001°52'0 0.0
2018-May-20 04:30N 50°58' E 001°52'0 0.0
2018-May-20 04:00N 50°58' E 001°52'0 0.0
2018-May-20 03:30N 50°58' E 001°52'0 0.0
2018-May-20 03:00N 50°58' E 001°52'0 0.0
2018-May-20 02:30N 50°58' E 001°52'0 0.0
2018-May-20 02:00N 50°58' E 001°52'0 0.9
2018-May-20 01:30N 50°58' E 001°51'2 3.9
2018-May-20 01:00N 50°58' E 001°48'916.6
2018-May-20 00:29N 51°00' E 001°35'817.0
2018-May-20 00:00N 51°05' E 001°24'3 3.6
2018-May-19 23:03N 51°07' E 001°20'0 0.0
2018-May-19 23:00N 51°07' E 001°20'713.4
2018-May-19 22:30N 51°04' E 001°29'1020.1
2018-May-19 22:00N 50°59' E 001°43'510.4
2018-May-19 21:30N 50°58' E 001°51'0 0.0
2018-May-19 21:00N 50°58' E 001°51'0 0.2
2018-May-19 20:30N 50°58' E 001°51'4 8.5
2018-May-19 20:00N 50°58' E 001°44'715.0
2018-May-19 19:30N 51°02' E 001°34'816.8
2018-May-19 19:01N 51°06' E 001°23'1 0.9
2018-May-19 17:53N 51°07' E 001°22'615.7
2018-May-19 17:31N 51°05' E 001°31'917.9
2018-May-19 17:00N 50°60' E 001°42'612.0
2018-May-19 16:31N 50°58' E 001°51'0 0.0
2018-May-19 16:00N 50°58' E 001°51'2 3.9
2018-May-19 15:30N 50°58' E 001°48'816.2
2018-May-19 15:00N 51°01' E 001°36'917.5
2018-May-19 14:30N 51°06' E 001°25'2 1.9
2018-May-19 13:24N 51°07' E 001°22'820.9
2018-May-19 13:00N 51°03' E 001°34'1020.2
2018-May-19 12:30N 50°58' E 001°48'2 4.4
2018-May-19 12:00N 50°58' E 001°51'0 0.0
2018-May-19 11:30N 50°58' E 001°51'2 5.0
2018-May-19 11:00N 50°58' E 001°47'816.7
2018-May-19 10:30N 51°01' E 001°35'1120.1
2018-May-19 09:58N 51°07' E 001°20'1 1.1
2018-May-19 09:11N 51°07' E 001°20'0 0.0
2018-May-19 08:56N 51°07' E 001°20'4 8.8
2018-May-19 08:30N 51°06' E 001°26'1019.0
2018-May-19 08:00N 51°01' E 001°38'816.4
2018-May-19 07:30N 50°58' E 001°51'0 0.7
2018-May-19 07:00N 50°58' E 001°51'0 0.0
2018-May-19 06:30N 50°58' E 001°51'3 5.8
2018-May-19 06:00N 50°58' E 001°47'815.3
2018-May-19 05:30N 51°01' E 001°35'917.2
2018-May-19 05:01N 51°06' E 001°24'3 3.0
2018-May-19 03:56N 51°07' E 001°20'3 7.9
2018-May-19 03:31N 51°07' E 001°25'815.7
2018-May-19 03:01N 51°03' E 001°36'815.7
2018-May-19 02:31N 50°58' E 001°46'3 6.6
2018-May-19 02:00N 50°58' E 001°51'0 0.0
2018-May-19 01:30N 50°58' E 001°51'2 3.0
2018-May-19 01:00N 50°58' E 001°49'816.3
2018-May-19 00:30N 50°60' E 001°36'816.5
2018-May-19 00:00N 51°05' E 001°26'4 2.6
2018-May-18 22:37N 51°07' E 001°22'216.9
2018-May-18 22:30N 51°07' E 001°25'917.2
2018-May-18 22:01N 51°02' E 001°36'917.0
2018-May-18 21:30N 50°58' E 001°48'2 3.9
2018-May-18 21:00N 50°58' E 001°51'0 0.0
2018-May-18 20:31N 50°58' E 001°51'510.7
2018-May-18 20:00N 50°58' E 001°43'815.6
2018-May-18 19:30N 51°02' E 001°32'8 4.7
2018-May-18 17:44N 51°07' E 001°22'418.1
2018-May-18 17:31N 51°06' E 001°28'918.1
2018-May-18 17:01N 51°00' E 001°40'815.3
2018-May-18 16:31N 50°58' E 001°51'0 0.1
2018-May-18 16:00N 50°58' E 001°51'0 0.0
2018-May-18 15:30N 50°58' E 001°51'714.5
2018-May-18 15:01N 50°59' E 001°40'918.5
2018-May-18 14:30N 51°04' E 001°28'6 4.6
2018-May-18 13:17N 51°07' E 001°20'413.4
2018-May-18 13:01N 51°06' E 001°26'918.1
2018-May-18 12:30N 51°01' E 001°38'816.6
2018-May-18 12:01N 50°58' E 001°50'1 1.4
2018-May-18 11:31N 50°58' E 001°51'1 2.1
2018-May-18 11:00N 50°58' E 001°50'713.5
2018-May-18 10:30N 50°60' E 001°39'917.5
2018-May-18 10:00N 51°04' E 001°27'5 3.3
2018-May-18 08:38N 51°07' E 001°22'218.1
2018-May-18 08:30N 51°06' E 001°25'918.1
2018-May-18 08:00N 51°01' E 001°37'917.7
2018-May-18 07:30N 50°58' E 001°50'1 1.6
2018-May-18 07:00N 50°58' E 001°51'0 0.0
2018-May-18 06:30N 50°58' E 001°51'3 6.3
2018-May-18 06:00N 50°58' E 001°46'714.7
2018-May-18 05:30N 50°60' E 001°35'816.8
2018-May-18 05:00N 51°05' E 001°25'2 1.7
2018-May-18 03:35N 51°07' E 001°22'116.5
2018-May-18 03:31N 51°07' E 001°24'917.6
2018-May-18 03:01N 51°03' E 001°36'816.7
2018-May-18 02:30N 50°58' E 001°47'2 4.8
2018-May-18 02:00N 50°58' E 001°51'0 0.0
2018-May-18 01:30N 50°58' E 001°51'0 0.0
2018-May-18 01:00N 50°58' E 001°51'0 0.8
2018-May-18 00:30N 50°58' E 001°52'0 0.0
2018-May-17 23:58N 50°58' E 001°52'0 0.9
2018-May-17 23:30N 50°58' E 001°51'3 5.0
2018-May-17 23:00N 50°58' E 001°47'814.9
2018-May-17 22:27N 51°00' E 001°35'715.5
2018-May-17 22:01N 51°05' E 001°26'5 8.4
2018-May-17 21:27N 51°07' E 001°20'0 0.0
2018-May-17 21:00N 51°07' E 001°20'2 3.7
2018-May-17 20:30N 51°07' E 001°23'1121.7
2018-May-17 20:01N 51°01' E 001°37'917.9
2018-May-17 19:30N 50°58' E 001°51'0 0.5
2018-May-17 19:00N 50°58' E 001°51'0 0.0
2018-May-17 18:30N 50°58' E 001°51'4 8.7
2018-May-17 18:00N 50°58' E 001°44'917.2
2018-May-17 17:29N 51°01' E 001°31'9 2.2
2018-May-17 13:15N 51°07' E 001°20'313.4
2018-May-17 13:01N 51°07' E 001°25'1019.2
2018-May-17 12:30N 51°01' E 001°38'917.0
2018-May-17 12:01N 50°58' E 001°51'0 0.9
2018-May-17 11:30N 50°58' E 001°51'0 0.1
2018-May-17 11:00N 50°58' E 001°51'816.3
2018-May-17 10:29N 50°59' E 001°38'1021.3
2018-May-17 10:00N 51°05' E 001°25'4 4.3
2018-May-17 09:06N 51°07' E 001°20'1 3.1
2018-May-17 08:45N 51°07' E 001°22'520.1
2018-May-17 08:30N 51°05' E 001°28'1019.2
2018-May-17 08:01N 50°59' E 001°40'713.7
2018-May-17 07:31N 50°58' E 001°51'0 0.0
2018-May-17 07:00N 50°58' E 001°51'0 0.1
2018-May-17 06:30N 50°58' E 001°51'713.0
2018-May-17 06:00N 50°58' E 001°41'815.9
2018-May-17 05:30N 51°01' E 001°30'8 6.2
2018-May-17 04:09N 51°07' E 001°20'1 6.8
2018-May-17 04:00N 51°07' E 001°22'1019.2
2018-May-17 03:31N 51°03' E 001°35'917.8
2018-May-17 03:01N 50°58' E 001°48'3 4.4
2018-May-17 02:24N 50°58' E 001°52'0 0.0
2018-May-17 01:57N 50°58' E 001°52'4 8.8
2018-May-17 01:30N 50°58' E 001°45'611.0
2018-May-17 01:00N 50°59' E 001°37'816.6
2018-May-17 00:31N 51°04' E 001°26'5 6.1
2018-May-16 23:40N 51°07' E 001°20'0 0.6
2018-May-16 23:27N 51°07' E 001°20'612.7
2018-May-16 23:01N 51°05' E 001°29'1019.3
2018-May-16 22:30N 51°00' E 001°42'713.0
2018-May-16 22:00N 50°58' E 001°52'0 0.2
2018-May-16 21:27N 50°58' E 001°52'2 4.6
2018-May-16 21:00N 50°58' E 001°48'5 9.0
2018-May-16 20:30N 50°59' E 001°41'918.6
2018-May-16 20:00N 51°03' E 001°28'7 5.7
2018-May-16 18:50N 51°07' E 001°20'1 4.4
2018-May-16 18:30N 51°07' E 001°22'816.6
2018-May-16 18:00N 51°04' E 001°34'917.5
2018-May-16 17:31N 50°58' E 001°45'4 7.7
2018-May-16 17:00N 50°58' E 001°51'0 0.0
2018-May-16 16:30N 50°58' E 001°51'1 2.8
2018-May-16 16:00N 50°58' E 001°49'611.7
2018-May-16 15:30N 50°58' E 001°40'816.9
2018-May-16 15:01N 51°03' E 001°29'7 4.8
2018-May-16 13:33N 51°07' E 001°20'  

Dump ship's entire track history